• Join FlightAware (Why Join?)
  • Login
  • US Flag 
09:32PM EST


 

Airport Tracker/Info


-or-


 

Live Flight TrackerFlight Track Log ✈ DAL3878 ✈ 29-Sep-2013 ✈ KMHT - KDTW

Flight Track Log - Related Links

Times and Time Zones

All times are in EDT time to prevent confusion due to time zone crossing. See the DAL3878 flight status page for this flight to view local times or setup timezone preferences in your user account.

Time Position Orientation Groundspeed Altitude Reporting Facility
EDT Latitude Longitude Course Direction KTS MPH feet Rate Location/Type
11:19AM 42.9833 -71.4000 20° North 191 220 2,300  Level KA90
11:20AM 43.0333 -71.4167 346° North 225 259 4,500 2,100 Climbing KA90
11:22AM 43.1228 -71.5153 321° Northwest 278 320 7,700 2,100 Climbing Boston Center
11:23AM 43.1561 -71.6208 293° West 300 345 10,000 1,860 Climbing Boston Center
11:24AM 43.1586 -71.7486 272° West 317 365 11,600 1,500 Climbing Boston Center
11:25AM 43.1614 -71.8758 272° West 333 383 13,100 1,500 Climbing Boston Center
11:26AM 43.1644 -72.0208 272° West 354 407 14,700 1,440 Climbing Boston Center
11:27AM 43.1661 -72.1589 271° West 362 417 16,200 1,260 Climbing Boston Center
11:28AM 43.1678 -72.3008 271° West 374 430 17,400 960 Climbing Boston Center
11:29AM 43.1700 -72.4456 271° West 381 438 18,300 900 Climbing Boston Center
11:30AM 43.1728 -72.5922 272° West 386 444 19,300 960 Climbing Boston Center
11:31AM 43.1742 -72.7458 271° West 399 459 20,300 1,020 Climbing Boston Center
11:32AM 43.1767 -72.9319 271° West 407 468 21,500 1,020 Climbing Boston Center
11:33AM 43.1781 -73.0894 271° West 413 475 22,500 720 Climbing Boston Center
11:34AM 43.1789 -73.2486 270° West 418 481 23,000 240 Climbing Boston Center
11:35AM 43.1219 -73.3967 242° Southwest 440 506 23,000 420 Level Boston Center
11:36AM 43.0617 -73.5428 241° Southwest 442 509 23,900 480 Climbing Boston Center
11:37AM 42.9886 -73.7197 241° Southwest 446 513 24,000 480 Climbing Boston Center
11:38AM 42.9750 -73.8875 264° West 459 528 24,900 480 Climbing Boston Center
11:39AM 42.9911 -74.0592 277° West 458 527 25,000  Climbing Boston Center
11:40AM 43.0064 -74.2347 277° West 467 537 25,000  Level Boston Center
11:41AM 43.0497 -74.3986 290° West 477 549 25,000 240 Level Boston Center
11:42AM 43.1019 -74.5567 294° West 471 542 25,500 600 Climbing Boston Center
11:43AM 43.1119 -74.7678 274° West 466 536 26,300 600 Climbing Boston Center
11:44AM 43.1183 -74.9447 273° West 462 532 26,800 480 Climbing Boston Center
11:45AM 43.1197 -75.1200 271° West 456 525 27,300 480 Climbing Boston Center
11:47AM 43.1128 -75.2981 267° West 458 527 27,800 300 Climbing Boston Center
11:48AM 43.1058 -75.4772 267° West 465 535 28,000 60 Climbing Boston Center
11:49AM 43.0983 -75.6569 267° West 469 540 28,000  Level Boston Center
11:50AM 43.0906 -75.8375 267° West 474 545 28,000  Level Boston Center
11:51AM 43.0825 -76.0186 267° West 477 549 28,000  Level Boston Center
11:52AM 43.0719 -76.2386 266° West 483 556 28,000  Level Boston Center
11:53AM 43.0625 -76.4200 266° West 481 554 28,000 -60 Level Boston Center
11:54AM 43.0525 -76.6028 266° West 483 556 27,900  Descending Boston Center
11:55AM 43.0439 -76.7758 266° West 481 554 28,000  Climbing Boston Center
11:56AM 43.0328 -76.9919 266° West 480 552 28,000  Level Boston Center
11:57AM 43.0222 -77.1725 265° West 480 552 28,000  Level Boston Center
11:58AM 43.0111 -77.3497 265° West 475 547 28,000  Level Boston Center
11:59AM 43.0014 -77.5278 266° West 476 548 28,000  Level Boston Center
12:00PM 42.9853 -77.7725 265° West 473 544 28,000  Level Cleveland Center
12:01PM 42.9744 -77.9481 265° West 471 542 28,000  Level Cleveland Center
12:02PM 42.9642 -78.1264 266° West 477 549 28,000  Level Cleveland Center
12:03PM 42.9511 -78.3003 264° West 466 536 28,000  Level Cleveland Center
12:04PM 42.9375 -78.5081 265° West 460 529 28,000  Level Cleveland Center
12:05PM 42.9253 -78.6706 264° West 435 501 28,000  Level Cleveland Center
12:06PM 42.9019 -78.8300 259° West 428 493 28,000  Level Cleveland Center
12:07PM 42.8786 -78.9886 259° West 429 494 28,000  Level Cleveland Center
12:08PM 42.8561 -79.1453 259° West 425 489 28,000  Level Cleveland Center
12:10PM 42.8333 -79.3036 259° West 426 490 28,000  Level Cleveland Center
12:11PM 42.8039 -79.4944 258° West 432 497 28,000  Level Cleveland Center
12:12PM 42.7794 -79.6544 258° West 434 499 28,000  Level Cleveland Center
12:13PM 42.7550 -79.8153 258° West 436 502 28,000  Level Cleveland Center
12:14PM 42.7439 -79.9822 265° West 436 502 28,000  Level Cleveland Center
12:15PM 42.7372 -80.1447 267° West 427 491 28,000  Level Cleveland Center
12:16PM 42.7311 -80.3078 267° West 426 490 28,000  Level Cleveland Center
12:17PM 42.7219 -80.4922 266° West 418 481 28,000  Level Cleveland Center
12:18PM 42.7150 -80.6528 267° West 419 482 28,000 -420 Level Cleveland Center
12:19PM 42.7086 -80.8203 267° West 435 501 27,200 -900 Descending Cleveland Center
12:20PM 42.6953 -80.9828 264° West 432 497 26,200 -1,440 Descending Cleveland Center
12:21PM 42.6781 -81.1375 261° West 417 480 24,200 -1,920 Descending Cleveland Center
12:22PM 42.6611 -81.2850 261° West 398 458 22,300 -1,920 Descending Cleveland Center
12:23PM 42.6436 -81.4283 261° West 387 445 20,300 -1,680 Descending Cleveland Center
12:24PM 42.6261 -81.5819 261° West 356 410 18,900 -1,500 Descending Cleveland Center
12:25PM 42.6125 -81.6969 261° West 318 366 17,300 -1,260 Descending Cleveland Center
12:26PM 42.5981 -81.8094 260° West 303 349 16,300 -960 Descending Cleveland Center
12:27PM 42.5839 -81.9239 260° West 306 352 15,400 -780 Descending Cleveland Center
12:28PM 42.5708 -82.0342 261° West 301 346 14,800 -720 Descending Cleveland Center
12:29PM 42.5578 -82.1442 261° West 296 341 14,000 -1,020 Descending Cleveland Center
12:30PM 42.5492 -82.2206 261° West 295 339 13,300 -1,020 Descending Cleveland Center
12:30PM 42.5447 -82.2517 259° West 294 338 13,000 -1,020 Descending Cleveland Center
12:30PM 42.5406 -82.2847 260° West 284 327 12,700 -1,020 Descending Cleveland Center
12:31PM 42.5278 -82.3781 260° West 286 329 12,000 -600 Descending Cleveland Center
12:31PM 42.5292 -82.3908 278° West 287 330 12,100  Climbing Cleveland Center
12:32PM 42.5147 -82.4833 258° West 286 329 12,000 -120 Descending Cleveland Center
12:32PM 42.5156 -82.4967 275° West 287 330 12,000 -420 Level Cleveland Center
12:33PM 42.4861 -82.5800 244° Southwest 280 322 11,600 -900 Descending Cleveland Center
12:33PM 42.4764 -82.6047 242° Southwest 284 327 11,000 -1,560 Descending Cleveland Center
12:34PM 42.4431 -82.6658 234° Southwest 278 320 10,000 -1,320 Descending Cleveland Center
12:34PM 42.4378 -82.6789 241° Southwest 243 280 9,800 -1,020 Descending Cleveland Center
12:35PM 42.4067 -82.7344 233° Southwest 238 274 9,000 -780 Descending Cleveland Center
12:35PM 42.4014 -82.7475 241° Southwest 219 252 9,000 -600 Level Cleveland Center
12:36PM 42.3761 -82.7950 234° Southwest 205 236 8,400 -840 Descending Cleveland Center
12:36PM 42.3719 -82.8086 247° West 193 222 8,200 -1,380 Descending Cleveland Center
12:37PM 42.3606 -82.8786 258° West 207 238 7,000 -1,200 Descending Cleveland Center
12:37PM 42.3622 -82.8836 294° West 202 232 7,000  Level Cleveland Center
12:38PM 42.3619 -82.9536 270° West 202 232 7,000  Level Cleveland Center
12:39PM 42.3644 -82.9658 285° West 203 234 7,000  Level Cleveland Center
12:39PM 42.3719 -83.0344 278° West 206 237 7,000  Level Cleveland Center
12:40PM 42.3686 -83.0286 128° Southeast 205 236 7,000  Level Cleveland Center
12:41PM 42.4247 -83.0192 North 220 253 7,000  Level Cleveland Center
12:41PM 42.4383 -83.0153 12° North 219 252 7,000 -300 Level Cleveland Center
12:42PM 42.4781 -82.9917 24° Northeast 211 243 6,700 -540 Descending Cleveland Center
12:42PM 42.4903 -82.9914 North 198 228 6,500 -720 Descending Cleveland Center
12:43PM 42.5214 -83.0414 310° West 187 215 6,000 -540 Descending Cleveland Center
12:43PM 42.5258 -83.0472 316° Northwest 183 211 6,000  Level Cleveland Center
12:44PM 42.5206 -83.0989 262° West 182 209 6,000  Level Cleveland Center
12:44PM 42.5194 -83.1056 257° West 169 194 6,000  Level Cleveland Center
12:45PM 42.4853 -83.1356 213° Southwest 165 190 6,000  Level Cleveland Center
12:45PM 42.4811 -83.1400 218° Southwest 163 188 6,000 -240 Level Cleveland Center
12:46PM 42.4456 -83.1650 207° Southwest 162 186 5,800 -660 Descending Cleveland Center
12:47PM 42.3989 -83.2022 211° Southwest 160 184 4,700 -1,020 Descending Cleveland Center
12:48PM 42.3592 -83.2306 208° Southwest 165 190 3,800 -720 Descending Cleveland Center
12:48PM 42.3653 -83.2242 38° Northeast 164 189 4,000 -900 Climbing Cleveland Center
12:49PM 42.3158 -83.2608 209° Southwest 167 192 2,900 -1,140 Descending Cleveland Center
12:49PM 42.3122 -83.2664 229° Southwest 169 194 2,800 -840 Descending Cleveland Center
12:50PM 42.2744 -83.2950 209° Southwest 132 152 2,000 -780 Descending Cleveland Center
12:51PM 42.2453 -83.3128 204° Southwest 140 161 1,300 -720 Descending Cleveland Center
12:51PM 42.2414 -83.3186 228° Southwest 136 157 1,300 -300 Level Cleveland Center
12:52PM 42.2139 -83.3369 206° Southwest 138 159 1,000 -300 Descending Cleveland Center